sensor_id;sensor_type;location;lat;lon;timestamp;P1;durP1;ratioP1;P2;durP2;ratioP2
66145;SDS011;52948;60.040;30.320;2022-12-05T00:05:00;9.35;;;4.38;;
66145;SDS011;52948;60.040;30.320;2022-12-05T00:10:03;8.15;;;4.00;;
66145;SDS011;52948;60.040;30.320;2022-12-05T00:15:10;7.90;;;5.07;;
66145;SDS011;52948;60.040;30.320;2022-12-05T00:20:17;9.05;;;4.00;;
66145;SDS011;52948;60.040;30.320;2022-12-05T00:25:23;7.53;;;4.03;;
66145;SDS011;52948;60.040;30.320;2022-12-05T00:30:26;7.45;;;4.30;;
66145;SDS011;52948;60.040;30.320;2022-12-05T00:35:29;8.38;;;4.60;;
66145;SDS011;52948;60.040;30.320;2022-12-05T00:40:33;9.40;;;4.40;;
66145;SDS011;52948;60.040;30.320;2022-12-05T00:45:40;8.10;;;4.18;;
66145;SDS011;52948;60.040;30.320;2022-12-05T00:50:43;9.60;;;4.35;;
66145;SDS011;52948;60.040;30.320;2022-12-05T00:55:49;8.70;;;4.25;;
66145;SDS011;52948;60.040;30.320;2022-12-05T01:00:54;10.20;;;4.28;;
66145;SDS011;52948;60.040;30.320;2022-12-05T01:06:00;8.75;;;4.38;;
66145;SDS011;52948;60.040;30.320;2022-12-05T01:11:03;9.32;;;4.43;;
66145;SDS011;52948;60.040;30.320;2022-12-05T01:16:08;9.88;;;5.22;;
66145;SDS011;52948;60.040;30.320;2022-12-05T01:21:14;8.38;;;4.45;;
66145;SDS011;52948;60.040;30.320;2022-12-05T01:26:17;9.27;;;4.35;;
66145;SDS011;52948;60.040;30.320;2022-12-05T01:31:23;8.60;;;4.40;;
66145;SDS011;52948;60.040;30.320;2022-12-05T01:36:27;9.80;;;4.00;;
66145;SDS011;52948;60.040;30.320;2022-12-05T01:41:30;7.38;;;4.05;;
66145;SDS011;52948;60.040;30.320;2022-12-05T01:46:35;7.28;;;4.40;;
66145;SDS011;52948;60.040;30.320;2022-12-05T01:51:39;7.63;;;4.20;;
66145;SDS011;52948;60.040;30.320;2022-12-05T01:56:45;7.28;;;4.30;;
66145;SDS011;52948;60.040;30.320;2022-12-05T02:01:50;7.20;;;4.60;;
66145;SDS011;52948;60.040;30.320;2022-12-05T02:06:53;6.85;;;4.10;;
66145;SDS011;52948;60.040;30.320;2022-12-05T02:11:57;9.90;;;4.65;;
66145;SDS011;52948;60.040;30.320;2022-12-05T02:33:27;9.57;;;4.90;;
66145;SDS011;52948;60.040;30.320;2022-12-05T02:39:04;8.40;;;4.43;;
66145;SDS011;52948;60.040;30.320;2022-12-05T02:44:10;7.72;;;4.45;;
66145;SDS011;52948;60.040;30.320;2022-12-05T02:49:17;7.00;;;4.13;;
66145;SDS011;52948;60.040;30.320;2022-12-05T02:54:23;6.75;;;4.25;;
66145;SDS011;52948;60.040;30.320;2022-12-05T02:59:27;8.23;;;3.70;;
66145;SDS011;52948;60.040;30.320;2022-12-05T03:04:30;7.68;;;4.53;;
66145;SDS011;52948;60.040;30.320;2022-12-05T03:14:37;8.05;;;4.85;;
66145;SDS011;52948;60.040;30.320;2022-12-05T03:20:02;7.80;;;4.10;;
66145;SDS011;52948;60.040;30.320;2022-12-05T03:25:07;9.40;;;4.78;;
66145;SDS011;52948;60.040;30.320;2022-12-05T03:30:11;8.40;;;4.68;;
66145;SDS011;52948;60.040;30.320;2022-12-05T03:45:48;6.82;;;4.10;;
66145;SDS011;52948;60.040;30.320;2022-12-05T03:51:07;7.93;;;4.38;;
66145;SDS011;52948;60.040;30.320;2022-12-05T03:56:12;9.25;;;4.25;;
66145;SDS011;52948;60.040;30.320;2022-12-05T04:01:17;10.57;;;4.95;;
66145;SDS011;52948;60.040;30.320;2022-12-05T04:06:29;6.00;;;3.80;;
66145;SDS011;52948;60.040;30.320;2022-12-05T04:11:34;8.38;;;4.25;;
66145;SDS011;52948;60.040;30.320;2022-12-05T04:16:50;8.40;;;4.22;;
66145;SDS011;52948;60.040;30.320;2022-12-05T04:22:04;7.93;;;3.83;;
66145;SDS011;52948;60.040;30.320;2022-12-05T04:32:24;9.15;;;3.70;;
66145;SDS011;52948;60.040;30.320;2022-12-05T04:37:30;9.23;;;3.95;;
66145;SDS011;52948;60.040;30.320;2022-12-05T04:42:34;7.30;;;3.90;;
66145;SDS011;52948;60.040;30.320;2022-12-05T04:47:42;9.15;;;3.92;;
66145;SDS011;52948;60.040;30.320;2022-12-05T04:52:47;11.43;;;4.20;;
66145;SDS011;52948;60.040;30.320;2022-12-05T04:57:53;10.98;;;5.18;;
66145;SDS011;52948;60.040;30.320;2022-12-05T05:03:03;10.60;;;4.63;;
66145;SDS011;52948;60.040;30.320;2022-12-05T05:08:26;5.85;;;3.33;;
66145;SDS011;52948;60.040;30.320;2022-12-05T05:13:32;8.45;;;4.63;;
66145;SDS011;52948;60.040;30.320;2022-12-05T05:18:34;9.57;;;4.55;;
66145;SDS011;52948;60.040;30.320;2022-12-05T05:23:37;12.07;;;5.10;;
66145;SDS011;52948;60.040;30.320;2022-12-05T05:28:39;8.20;;;3.75;;
66145;SDS011;52948;60.040;30.320;2022-12-05T05:33:41;7.78;;;3.83;;
66145;SDS011;52948;60.040;30.320;2022-12-05T05:38:44;8.80;;;4.40;;
66145;SDS011;52948;60.040;30.320;2022-12-05T05:43:48;12.45;;;4.55;;
66145;SDS011;52948;60.040;30.320;2022-12-05T05:48:50;11.23;;;5.47;;
66145;SDS011;52948;60.040;30.320;2022-12-05T05:53:53;9.57;;;5.22;;
66145;SDS011;52948;60.040;30.320;2022-12-05T05:58:59;11.60;;;5.35;;
66145;SDS011;52948;60.040;30.320;2022-12-05T06:04:02;11.27;;;5.18;;
66145;SDS011;52948;60.040;30.320;2022-12-05T06:09:05;9.32;;;4.72;;
66145;SDS011;52948;60.040;30.320;2022-12-05T06:14:08;12.88;;;5.10;;
66145;SDS011;52948;60.040;30.320;2022-12-05T06:19:10;9.88;;;5.10;;
66145;SDS011;52948;60.040;30.320;2022-12-05T06:24:12;10.57;;;4.90;;
66145;SDS011;52948;60.040;30.320;2022-12-05T06:29:14;13.98;;;5.38;;
66145;SDS011;52948;60.040;30.320;2022-12-05T06:34:16;10.90;;;5.13;;
66145;SDS011;52948;60.040;30.320;2022-12-05T06:39:19;12.15;;;5.18;;
66145;SDS011;52948;60.040;30.320;2022-12-05T06:44:21;12.55;;;5.65;;
66145;SDS011;52948;60.040;30.320;2022-12-05T06:49:25;14.23;;;5.00;;
66145;SDS011;52948;60.040;30.320;2022-12-05T06:54:32;9.27;;;5.20;;
66145;SDS011;52948;60.040;30.320;2022-12-05T06:59:35;7.75;;;4.35;;
66145;SDS011;52948;60.040;30.320;2022-12-05T07:04:37;12.57;;;5.82;;
66145;SDS011;52948;60.040;30.320;2022-12-05T07:09:39;13.05;;;5.53;;
66145;SDS011;52948;60.040;30.320;2022-12-05T07:14:51;12.30;;;5.43;;
66145;SDS011;52948;60.040;30.320;2022-12-05T07:19:54;12.40;;;5.65;;
66145;SDS011;52948;60.040;30.320;2022-12-05T07:24:57;11.18;;;5.65;;
66145;SDS011;52948;60.040;30.320;2022-12-05T07:29:59;14.20;;;4.95;;
66145;SDS011;52948;60.040;30.320;2022-12-05T07:35:05;9.27;;;4.93;;
66145;SDS011;52948;60.040;30.320;2022-12-05T07:40:33;14.75;;;5.40;;
66145;SDS011;52948;60.040;30.320;2022-12-05T07:45:35;13.60;;;6.38;;
66145;SDS011;52948;60.040;30.320;2022-12-05T07:50:41;14.50;;;6.50;;
66145;SDS011;52948;60.040;30.320;2022-12-05T07:55:43;14.68;;;6.28;;
66145;SDS011;52948;60.040;30.320;2022-12-05T08:00:46;13.98;;;5.88;;
66145;SDS011;52948;60.040;30.320;2022-12-05T08:05:48;13.43;;;6.10;;
66145;SDS011;52948;60.040;30.320;2022-12-05T08:10:50;12.38;;;6.75;;
66145;SDS011;52948;60.040;30.320;2022-12-05T08:15:52;13.90;;;6.50;;
66145;SDS011;52948;60.040;30.320;2022-12-05T08:20:55;13.20;;;6.88;;
66145;SDS011;52948;60.040;30.320;2022-12-05T08:26:06;12.85;;;5.93;;
66145;SDS011;52948;60.040;30.320;2022-12-05T08:31:14;12.75;;;5.50;;
66145;SDS011;52948;60.040;30.320;2022-12-05T08:36:21;10.35;;;4.78;;
66145;SDS011;52948;60.040;30.320;2022-12-05T08:41:25;11.15;;;4.63;;
66145;SDS011;52948;60.040;30.320;2022-12-05T08:46:30;10.05;;;4.57;;
66145;SDS011;52948;60.040;30.320;2022-12-05T08:51:33;10.50;;;5.03;;
66145;SDS011;52948;60.040;30.320;2022-12-05T08:56:36;12.45;;;4.72;;
66145;SDS011;52948;60.040;30.320;2022-12-05T09:01:43;12.15;;;5.72;;
66145;SDS011;52948;60.040;30.320;2022-12-05T09:06:45;12.30;;;5.95;;
66145;SDS011;52948;60.040;30.320;2022-12-05T09:11:47;16.55;;;5.75;;
66145;SDS011;52948;60.040;30.320;2022-12-05T09:16:51;9.35;;;4.90;;
66145;SDS011;52948;60.040;30.320;2022-12-05T09:21:54;12.77;;;6.03;;
66145;SDS011;52948;60.040;30.320;2022-12-05T09:26:58;10.88;;;5.22;;
66145;SDS011;52948;60.040;30.320;2022-12-05T09:32:00;10.48;;;5.55;;
66145;SDS011;52948;60.040;30.320;2022-12-05T09:37:03;10.45;;;5.18;;
66145;SDS011;52948;60.040;30.320;2022-12-05T09:42:24;11.45;;;5.03;;
66145;SDS011;52948;60.040;30.320;2022-12-05T09:52:34;8.30;;;4.15;;
66145;SDS011;52948;60.040;30.320;2022-12-05T09:57:41;11.40;;;4.85;;
66145;SDS011;52948;60.040;30.320;2022-12-05T10:18:38;11.68;;;6.13;;
66145;SDS011;52948;60.040;30.320;2022-12-05T10:23:57;9.00;;;4.53;;
66145;SDS011;52948;60.040;30.320;2022-12-05T10:39:24;10.70;;;4.88;;
66145;SDS011;52948;60.040;30.320;2022-12-05T10:44:26;9.43;;;4.63;;
66145;SDS011;52948;60.040;30.320;2022-12-05T10:49:28;10.20;;;4.82;;
66145;SDS011;52948;60.040;30.320;2022-12-05T10:54:35;10.07;;;5.53;;
66145;SDS011;52948;60.040;30.320;2022-12-05T10:59:43;12.35;;;4.97;;
66145;SDS011;52948;60.040;30.320;2022-12-05T11:04:47;11.18;;;6.03;;
66145;SDS011;52948;60.040;30.320;2022-12-05T11:09:49;9.98;;;5.15;;
66145;SDS011;52948;60.040;30.320;2022-12-05T11:14:53;8.15;;;5.15;;
66145;SDS011;52948;60.040;30.320;2022-12-05T11:25:39;13.88;;;6.18;;
66145;SDS011;52948;60.040;30.320;2022-12-05T11:56:51;8.20;;;3.92;;
66145;SDS011;52948;60.040;30.320;2022-12-05T12:19:05;9.30;;;5.57;;
66145;SDS011;52948;60.040;30.320;2022-12-05T12:30:08;11.82;;;6.05;;
66145;SDS011;52948;60.040;30.320;2022-12-05T12:35:17;13.57;;;6.25;;
66145;SDS011;52948;60.040;30.320;2022-12-05T12:51:11;11.73;;;5.00;;
66145;SDS011;52948;60.040;30.320;2022-12-05T13:07:14;8.68;;;5.00;;
66145;SDS011;52948;60.040;30.320;2022-12-05T13:12:24;12.27;;;4.78;;
66145;SDS011;52948;60.040;30.320;2022-12-05T13:17:32;11.60;;;5.25;;
66145;SDS011;52948;60.040;30.320;2022-12-05T13:22:34;10.88;;;5.78;;
66145;SDS011;52948;60.040;30.320;2022-12-05T13:27:37;10.65;;;6.15;;
66145;SDS011;52948;60.040;30.320;2022-12-05T13:32:40;15.63;;;7.20;;
66145;SDS011;52948;60.040;30.320;2022-12-05T13:37:47;17.33;;;7.72;;
66145;SDS011;52948;60.040;30.320;2022-12-05T13:43:08;11.77;;;6.45;;
66145;SDS011;52948;60.040;30.320;2022-12-05T13:48:23;12.25;;;6.13;;
66145;SDS011;52948;60.040;30.320;2022-12-05T13:53:28;19.27;;;7.57;;
66145;SDS011;52948;60.040;30.320;2022-12-05T14:09:01;14.13;;;6.85;;
66145;SDS011;52948;60.040;30.320;2022-12-05T14:14:06;10.48;;;5.50;;
66145;SDS011;52948;60.040;30.320;2022-12-05T14:19:12;14.80;;;6.15;;
66145;SDS011;52948;60.040;30.320;2022-12-05T14:35:27;16.27;;;6.70;;
66145;SDS011;52948;60.040;30.320;2022-12-05T14:40:31;15.07;;;7.25;;
66145;SDS011;52948;60.040;30.320;2022-12-05T14:45:39;20.10;;;7.72;;
66145;SDS011;52948;60.040;30.320;2022-12-05T14:50:48;15.27;;;8.20;;
66145;SDS011;52948;60.040;30.320;2022-12-05T15:01:16;14.85;;;7.38;;
66145;SDS011;52948;60.040;30.320;2022-12-05T15:06:21;19.95;;;7.15;;
66145;SDS011;52948;60.040;30.320;2022-12-05T15:11:26;14.70;;;7.97;;
66145;SDS011;52948;60.040;30.320;2022-12-05T15:16:34;14.75;;;7.45;;
66145;SDS011;52948;60.040;30.320;2022-12-05T15:21:39;17.95;;;8.05;;
66145;SDS011;52948;60.040;30.320;2022-12-05T15:31:50;15.20;;;7.05;;
66145;SDS011;52948;60.040;30.320;2022-12-05T15:47:42;15.77;;;8.32;;
66145;SDS011;52948;60.040;30.320;2022-12-05T15:52:59;14.52;;;7.35;;
66145;SDS011;52948;60.040;30.320;2022-12-05T16:03:47;15.27;;;7.22;;
66145;SDS011;52948;60.040;30.320;2022-12-05T16:08:54;16.05;;;6.95;;
66145;SDS011;52948;60.040;30.320;2022-12-05T16:13:58;14.70;;;7.13;;
66145;SDS011;52948;60.040;30.320;2022-12-05T16:19:15;17.65;;;8.10;;
66145;SDS011;52948;60.040;30.320;2022-12-05T16:24:27;15.55;;;7.25;;
66145;SDS011;52948;60.040;30.320;2022-12-05T16:29:32;16.05;;;6.75;;
66145;SDS011;52948;60.040;30.320;2022-12-05T16:34:35;16.67;;;8.13;;
66145;SDS011;52948;60.040;30.320;2022-12-05T16:39:42;18.75;;;8.98;;
66145;SDS011;52948;60.040;30.320;2022-12-05T16:49:47;22.00;;;9.48;;
66145;SDS011;52948;60.040;30.320;2022-12-05T16:54:50;18.58;;;9.15;;
66145;SDS011;52948;60.040;30.320;2022-12-05T16:59:52;20.60;;;8.70;;
66145;SDS011;52948;60.040;30.320;2022-12-05T17:04:55;17.77;;;8.57;;
66145;SDS011;52948;60.040;30.320;2022-12-05T17:09:57;18.17;;;8.82;;
66145;SDS011;52948;60.040;30.320;2022-12-05T17:15:03;19.80;;;8.70;;
66145;SDS011;52948;60.040;30.320;2022-12-05T17:20:07;19.85;;;8.30;;
66145;SDS011;52948;60.040;30.320;2022-12-05T17:25:17;19.77;;;9.15;;
66145;SDS011;52948;60.040;30.320;2022-12-05T17:30:24;13.15;;;6.70;;
66145;SDS011;52948;60.040;30.320;2022-12-05T17:35:32;18.70;;;8.85;;
66145;SDS011;52948;60.040;30.320;2022-12-05T17:40:34;15.67;;;6.77;;
66145;SDS011;52948;60.040;30.320;2022-12-05T17:45:37;13.68;;;6.53;;
66145;SDS011;52948;60.040;30.320;2022-12-05T17:50:40;13.73;;;7.20;;
66145;SDS011;52948;60.040;30.320;2022-12-05T17:55:43;17.60;;;7.47;;
66145;SDS011;52948;60.040;30.320;2022-12-05T18:00:49;14.50;;;7.00;;
66145;SDS011;52948;60.040;30.320;2022-12-05T18:05:51;14.25;;;7.22;;
66145;SDS011;52948;60.040;30.320;2022-12-05T18:10:54;12.48;;;6.60;;
66145;SDS011;52948;60.040;30.320;2022-12-05T18:15:57;11.07;;;5.50;;
66145;SDS011;52948;60.040;30.320;2022-12-05T18:21:06;13.82;;;6.20;;
66145;SDS011;52948;60.040;30.320;2022-12-05T18:26:11;15.73;;;7.63;;
66145;SDS011;52948;60.040;30.320;2022-12-05T18:31:14;13.57;;;6.70;;
66145;SDS011;52948;60.040;30.320;2022-12-05T18:41:45;12.68;;;6.50;;
66145;SDS011;52948;60.040;30.320;2022-12-05T18:46:48;13.50;;;7.32;;
66145;SDS011;52948;60.040;30.320;2022-12-05T18:51:50;12.07;;;6.00;;
66145;SDS011;52948;60.040;30.320;2022-12-05T18:56:54;12.50;;;5.60;;
66145;SDS011;52948;60.040;30.320;2022-12-05T19:01:57;15.82;;;7.57;;
66145;SDS011;52948;60.040;30.320;2022-12-05T19:07:02;9.02;;;5.35;;
66145;SDS011;52948;60.040;30.320;2022-12-05T19:12:04;10.70;;;5.88;;
66145;SDS011;52948;60.040;30.320;2022-12-05T19:17:07;11.48;;;5.93;;
66145;SDS011;52948;60.040;30.320;2022-12-05T19:22:09;10.57;;;4.93;;
66145;SDS011;52948;60.040;30.320;2022-12-05T19:27:12;6.00;;;3.10;;
66145;SDS011;52948;60.040;30.320;2022-12-05T19:32:14;8.05;;;4.25;;
66145;SDS011;52948;60.040;30.320;2022-12-05T19:37:16;6.85;;;4.93;;
66145;SDS011;52948;60.040;30.320;2022-12-05T19:42:18;10.50;;;4.38;;
66145;SDS011;52948;60.040;30.320;2022-12-05T19:47:20;11.10;;;5.53;;
66145;SDS011;52948;60.040;30.320;2022-12-05T19:52:23;9.52;;;5.30;;
66145;SDS011;52948;60.040;30.320;2022-12-05T19:57:25;11.98;;;4.85;;
66145;SDS011;52948;60.040;30.320;2022-12-05T20:02:27;12.98;;;5.78;;
66145;SDS011;52948;60.040;30.320;2022-12-05T20:07:29;10.43;;;5.13;;
66145;SDS011;52948;60.040;30.320;2022-12-05T20:12:31;12.65;;;4.80;;
66145;SDS011;52948;60.040;30.320;2022-12-05T20:17:34;8.35;;;4.90;;
66145;SDS011;52948;60.040;30.320;2022-12-05T20:22:36;10.85;;;5.25;;
66145;SDS011;52948;60.040;30.320;2022-12-05T20:27:38;8.55;;;4.07;;
66145;SDS011;52948;60.040;30.320;2022-12-05T20:32:40;14.02;;;6.30;;
66145;SDS011;52948;60.040;30.320;2022-12-05T20:37:43;9.85;;;4.13;;
66145;SDS011;52948;60.040;30.320;2022-12-05T20:42:45;8.90;;;4.55;;
66145;SDS011;52948;60.040;30.320;2022-12-05T20:47:47;10.65;;;5.57;;
66145;SDS011;52948;60.040;30.320;2022-12-05T20:52:49;8.85;;;5.30;;
66145;SDS011;52948;60.040;30.320;2022-12-05T20:57:51;9.27;;;5.80;;
66145;SDS011;52948;60.040;30.320;2022-12-05T21:02:54;10.30;;;5.85;;
66145;SDS011;52948;60.040;30.320;2022-12-05T21:07:57;10.23;;;5.72;;
66145;SDS011;52948;60.040;30.320;2022-12-05T21:12:59;10.65;;;6.13;;
66145;SDS011;52948;60.040;30.320;2022-12-05T21:18:01;13.50;;;6.78;;
66145;SDS011;52948;60.040;30.320;2022-12-05T21:23:04;9.38;;;4.55;;
66145;SDS011;52948;60.040;30.320;2022-12-05T21:28:06;10.15;;;5.22;;
66145;SDS011;52948;60.040;30.320;2022-12-05T21:33:08;13.63;;;5.05;;
66145;SDS011;52948;60.040;30.320;2022-12-05T21:38:10;11.07;;;4.95;;
66145;SDS011;52948;60.040;30.320;2022-12-05T21:43:12;9.60;;;5.32;;
66145;SDS011;52948;60.040;30.320;2022-12-05T21:48:15;9.70;;;4.93;;
66145;SDS011;52948;60.040;30.320;2022-12-05T21:53:17;10.52;;;4.75;;
66145;SDS011;52948;60.040;30.320;2022-12-05T21:58:19;11.10;;;5.88;;
66145;SDS011;52948;60.040;30.320;2022-12-05T22:03:21;7.65;;;4.80;;
66145;SDS011;52948;60.040;30.320;2022-12-05T22:08:24;7.93;;;4.80;;
66145;SDS011;52948;60.040;30.320;2022-12-05T22:13:26;10.23;;;4.50;;
66145;SDS011;52948;60.040;30.320;2022-12-05T22:18:28;7.80;;;4.20;;
66145;SDS011;52948;60.040;30.320;2022-12-05T22:23:31;6.90;;;4.05;;
66145;SDS011;52948;60.040;30.320;2022-12-05T22:28:34;6.80;;;3.67;;
66145;SDS011;52948;60.040;30.320;2022-12-05T22:33:36;7.65;;;3.40;;
66145;SDS011;52948;60.040;30.320;2022-12-05T22:38:41;6.38;;;4.05;;
66145;SDS011;52948;60.040;30.320;2022-12-05T22:43:45;7.38;;;3.72;;
66145;SDS011;52948;60.040;30.320;2022-12-05T22:48:50;7.20;;;3.40;;
66145;SDS011;52948;60.040;30.320;2022-12-05T22:53:52;7.25;;;3.72;;
66145;SDS011;52948;60.040;30.320;2022-12-05T22:58:55;7.80;;;3.60;;
66145;SDS011;52948;60.040;30.320;2022-12-05T23:04:00;7.47;;;3.53;;
66145;SDS011;52948;60.040;30.320;2022-12-05T23:09:07;5.00;;;3.20;;
66145;SDS011;52948;60.040;30.320;2022-12-05T23:14:10;8.23;;;3.80;;
66145;SDS011;52948;60.040;30.320;2022-12-05T23:19:13;5.57;;;3.00;;
66145;SDS011;52948;60.040;30.320;2022-12-05T23:24:15;5.15;;;3.05;;
66145;SDS011;52948;60.040;30.320;2022-12-05T23:29:17;3.70;;;2.55;;
66145;SDS011;52948;60.040;30.320;2022-12-05T23:34:19;5.00;;;3.20;;
66145;SDS011;52948;60.040;30.320;2022-12-05T23:39:21;4.93;;;2.90;;
66145;SDS011;52948;60.040;30.320;2022-12-05T23:44:24;5.55;;;2.63;;
66145;SDS011;52948;60.040;30.320;2022-12-05T23:49:26;5.07;;;3.05;;
66145;SDS011;52948;60.040;30.320;2022-12-05T23:54:28;5.97;;;2.90;;
66145;SDS011;52948;60.040;30.320;2022-12-05T23:59:30;4.65;;;2.72;;
